Time;durP1;ratioP1;P1;durP2;ratioP2;P2;SDS_P1;SDS_P2;PMS_P1;PMS_P2;Temp;Humidity;BMP_temperature;BMP_pressure;BME280_temperature;BME280_humidity;BME280_pressure;Samples;Min_cycle;Max_cycle;Signal;HPM_P1;HPM_P2
2021/11/07 00:00:55;;;;;;;24.85;12.35;;;-1.00;99.90;;;;;;2084770;28;20663;-62
2021/11/07 00:02:05;;;;;;;25.23;12.18;;;-1.00;99.90;;;;;;2082937;28;20196;-61
2021/11/07 00:05:32;;;;;;;31.30;14.93;;;-1.00;99.90;;;;;;2081835;28;20185;-73
2021/11/07 00:06:37;;;;;;;29.63;15.00;;;-1.00;99.90;;;;;;2082167;28;20165;-72
2021/11/07 00:10:12;;;;;;;34.75;15.82;;;-1.00;99.90;;;;;;2082899;28;20631;-63
2021/11/07 00:11:18;;;;;;;28.80;16.02;;;-1.00;99.90;;;;;;2082445;28;20258;-64
2021/11/07 00:12:22;;;;;;;32.60;16.30;;;-1.00;99.90;;;;;;2082598;28;20652;-64
2021/11/07 00:13:24;;;;;;;32.22;15.57;;;-1.00;99.90;;;;;;2082682;28;20619;-64
2021/11/07 00:14:27;;;;;;;29.95;14.82;;;-1.00;99.90;;;;;;2082735;28;20258;-65
2021/11/07 00:15:27;;;;;;;31.48;16.17;;;-1.00;99.90;;;;;;2082643;28;20551;-64
2021/11/07 00:16:34;;;;;;;27.87;14.40;;;-1.00;99.90;;;;;;2082686;28;20182;-64
2021/11/07 00:17:36;;;;;;;29.45;14.63;;;-1.00;99.90;;;;;;2082745;28;20211;-64
2021/11/07 00:18:45;;;;;;;31.80;15.20;;;-1.00;99.90;;;;;;2082767;28;20276;-64
2021/11/07 00:19:52;;;;;;;25.92;14.70;;;-1.00;99.90;;;;;;2082810;28;20252;-65
2021/11/07 00:23:46;;;;;;;27.83;13.50;;;-1.10;99.90;;;;;;2089687;28;20195;-64
2021/11/07 00:25:00;;;;;;;24.20;13.05;;;-1.10;99.90;;;;;;2088008;28;20706;-64
2021/11/07 00:28:36;;;;;;;22.08;11.73;;;-1.10;99.90;;;;;;2081862;28;20168;-64
2021/11/07 00:29:45;;;;;;;25.52;12.38;;;-1.10;99.90;;;;;;2081691;28;20185;-64
2021/11/07 00:38:35;;;;;;;25.02;13.00;;;-1.30;99.90;;;;;;2082787;28;20188;-64
2021/11/07 00:40:05;;;;;;;25.67;13.48;;;-1.30;99.90;;;;;;2082501;28;20203;-64
2021/11/07 00:41:20;;;;;;;29.15;13.20;;;-1.30;99.90;;;;;;2082227;28;20580;-63
2021/11/07 00:42:28;;;;;;;21.73;12.02;;;-1.30;99.90;;;;;;2082683;28;20170;-63
2021/11/07 00:43:35;;;;;;;25.08;13.02;;;-1.40;99.90;;;;;;2082393;28;20563;-64
2021/11/07 00:47:55;;;;;;;22.58;12.27;;;-1.40;99.90;;;;;;2082490;28;20237;-64
2021/11/07 00:50:01;;;;;;;25.50;14.40;;;-1.40;99.90;;;;;;2082284;28;20192;-63
2021/11/07 00:52:24;;;;;;;26.58;13.27;;;-1.30;99.90;;;;;;2082285;28;20192;-64
2021/11/07 00:54:12;;;;;;;26.38;13.75;;;-1.30;99.90;;;;;;2082267;28;20200;-64
2021/11/07 00:56:15;;;;;;;23.38;13.45;;;-1.30;99.90;;;;;;2082236;28;20172;-64
2021/11/07 00:57:23;;;;;;;26.40;13.77;;;-1.20;99.90;;;;;;2082096;28;20172;-64
2021/11/07 00:58:34;;;;;;;25.05;13.68;;;-1.20;99.90;;;;;;2082160;28;20184;-64
2021/11/07 00:59:45;;;;;;;25.40;13.75;;;-1.20;99.90;;;;;;2082279;28;20189;-64
2021/11/07 01:00:59;;;;;;;32.38;15.27;;;-1.20;99.90;;;;;;2081962;28;20185;-64
2021/11/07 01:02:34;;;;;;;28.00;14.25;;;-1.20;99.90;;;;;;2082112;28;20194;-64
2021/11/07 01:03:35;;;;;;;28.15;13.57;;;-1.10;99.90;;;;;;2082230;28;20171;-63
2021/11/07 01:04:37;;;;;;;26.48;13.85;;;-1.10;99.90;;;;;;2082070;28;20733;-64
2021/11/07 01:05:38;;;;;;;26.70;14.70;;;-1.10;99.90;;;;;;2081983;28;20180;-64
2021/11/07 01:06:41;;;;;;;37.97;16.10;;;-1.10;99.90;;;;;;2081396;28;20192;-63
2021/11/07 01:07:42;;;;;;;33.70;15.40;;;-1.10;99.90;;;;;;2081588;28;20330;-64
2021/11/07 01:08:43;;;;;;;30.70;14.13;;;-1.10;99.90;;;;;;2082002;28;20195;-64
2021/11/07 01:09:45;;;;;;;26.60;13.83;;;-1.00;99.90;;;;;;2082027;28;20370;-63
2021/11/07 01:10:45;;;;;;;27.92;14.75;;;-1.00;99.90;;;;;;2081906;28;20181;-64
2021/11/07 01:11:46;;;;;;;27.07;13.33;;;-1.00;99.90;;;;;;2081700;28;20195;-64
2021/11/07 01:12:47;;;;;;;24.83;13.00;;;-1.00;99.90;;;;;;2081884;28;20192;-63
2021/11/07 01:13:48;;;;;;;25.58;12.45;;;-1.00;99.90;;;;;;2081987;28;20180;-63
2021/11/07 01:14:52;;;;;;;21.67;12.38;;;-1.00;99.90;;;;;;2081882;28;20192;-63
2021/11/07 01:15:54;;;;;;;29.25;14.10;;;-1.00;99.90;;;;;;2081954;28;20737;-64
2021/11/07 01:16:55;;;;;;;32.10;14.25;;;-1.00;99.90;;;;;;2081722;28;20601;-64
2021/11/07 01:17:56;;;;;;;30.88;14.85;;;-1.00;99.90;;;;;;2081753;28;20220;-63
2021/11/07 01:18:57;;;;;;;39.63;16.15;;;-1.00;99.90;;;;;;2081777;28;20273;-63
2021/11/07 01:19:58;;;;;;;33.47;15.07;;;-1.10;99.90;;;;;;2081859;28;20191;-63
2021/11/07 01:20:59;;;;;;;38.63;16.58;;;-1.10;99.90;;;;;;2081813;28;20267;-63
2021/11/07 01:22:03;;;;;;;31.73;15.10;;;-1.10;99.90;;;;;;2081879;28;20540;-63
2021/11/07 01:24:16;;;;;;;33.60;16.10;;;-1.10;99.90;;;;;;2081656;28;20188;-63
2021/11/07 01:25:18;;;;;;;27.75;14.90;;;-1.20;99.90;;;;;;2073686;28;20170;-64
2021/11/07 01:26:35;;;;;;;31.38;14.75;;;-1.20;99.90;;;;;;2073794;28;20466;-64
2021/11/07 01:27:39;;;;;;;31.75;14.63;;;-1.20;99.90;;;;;;2073460;28;20267;-63
2021/11/07 01:28:47;;;;;;;29.35;14.25;;;-1.20;99.90;;;;;;2073694;28;20188;-63
2021/11/07 01:29:52;;;;;;;27.73;13.85;;;-1.20;99.90;;;;;;2073687;28;20221;-63
2021/11/07 01:30:56;;;;;;;30.52;13.60;;;-1.30;99.90;;;;;;2073744;28;20204;-64
2021/11/07 01:31:57;;;;;;;28.20;13.25;;;-1.30;99.90;;;;;;2073734;28;20188;-63
2021/11/07 01:33:14;;;;;;;23.60;12.48;;;-1.30;99.90;;;;;;2081652;28;20183;-63
2021/11/07 01:34:37;;;;;;;23.88;11.65;;;-1.30;99.80;;;;;;2081844;28;20176;-63
2021/11/07 01:36:43;;;;;;;28.83;13.50;;;-1.40;99.90;;;;;;2081819;28;20195;-63
2021/11/07 01:37:58;;;;;;;24.60;13.15;;;-1.40;99.90;;;;;;2081500;28;20224;-63
2021/11/07 01:39:08;;;;;;;27.95;13.38;;;-1.40;99.90;;;;;;2081922;28;20254;-64
2021/11/07 01:42:34;;;;;;;30.90;14.55;;;-1.50;99.90;;;;;;2081805;28;20173;-64
2021/11/07 01:43:35;;;;;;;30.13;14.07;;;-1.50;99.90;;;;;;2081761;28;20167;-64
2021/11/07 01:44:58;;;;;;;31.80;14.40;;;-1.50;99.90;;;;;;2081669;28;20179;-62
2021/11/07 01:46:16;;;;;;;26.58;13.88;;;-1.50;99.90;;;;;;2081837;28;20163;-63
2021/11/07 01:47:17;;;;;;;30.70;14.57;;;-1.50;99.90;;;;;;2081781;28;20631;-63
2021/11/07 01:48:23;;;;;;;31.63;15.15;;;-1.50;99.90;;;;;;2081617;28;20230;-64
2021/11/07 01:49:32;;;;;;;25.85;13.68;;;-1.40;99.90;;;;;;2081763;28;20175;-63
2021/11/07 01:50:39;;;;;;;26.20;13.88;;;-1.40;99.90;;;;;;2081744;28;20468;-64
2021/11/07 01:51:47;;;;;;;25.25;14.55;;;-1.50;99.90;;;;;;2081400;28;20559;-64
2021/11/07 01:52:53;;;;;;;29.20;14.50;;;-1.50;99.90;;;;;;2081630;28;20216;-64
2021/11/07 01:54:05;;;;;;;29.50;14.70;;;-1.50;99.90;;;;;;2081612;28;20175;-64
2021/11/07 01:55:07;;;;;;;23.05;13.25;;;-1.50;99.90;;;;;;2081635;28;20184;-64
2021/11/07 01:56:12;;;;;;;28.00;14.25;;;-1.50;99.90;;;;;;2081660;28;20189;-64
2021/11/07 01:57:16;;;;;;;28.33;14.07;;;-1.50;99.90;;;;;;2081795;28;20184;-63
2021/11/07 01:58:16;;;;;;;28.10;14.45;;;-1.50;99.90;;;;;;2081546;28;20577;-63
2021/11/07 01:59:18;;;;;;;27.03;14.03;;;-1.50;99.90;;;;;;2081610;28;20221;-64
2021/11/07 02:00:28;;;;;;;27.80;13.65;;;-1.50;99.90;;;;;;2081772;28;20187;-64
2021/11/07 02:01:29;;;;;;;26.02;13.73;;;-1.50;99.90;;;;;;2081413;28;20652;-64
2021/11/07 02:02:35;;;;;;;26.60;13.90;;;-1.50;99.90;;;;;;2081625;28;20188;-64
2021/11/07 02:03:37;;;;;;;31.02;13.65;;;-1.50;99.90;;;;;;2081605;28;20174;-64
2021/11/07 02:04:38;;;;;;;28.40;14.13;;;-1.50;99.90;;;;;;2081394;28;20183;-64
2021/11/07 02:05:39;;;;;;;26.00;13.80;;;-1.50;99.90;;;;;;2081534;28;20698;-64
2021/11/07 02:06:40;;;;;;;28.88;14.38;;;-1.40;99.90;;;;;;2081596;28;20186;-64
2021/11/07 02:07:41;;;;;;;31.10;13.40;;;-1.50;99.90;;;;;;2081473;28;20190;-64
2021/11/07 02:08:42;;;;;;;29.10;13.83;;;-1.50;99.90;;;;;;2081732;28;20187;-64
2021/11/07 02:09:43;;;;;;;29.75;14.60;;;-1.50;99.90;;;;;;2081544;28;20196;-64
2021/11/07 02:10:44;;;;;;;25.30;13.27;;;-1.50;99.90;;;;;;2081656;28;20600;-64
2021/11/07 02:11:44;;;;;;;24.17;13.10;;;-1.50;99.90;;;;;;2081241;28;20430;-63
2021/11/07 02:12:47;;;;;;;26.45;13.27;;;-1.50;99.90;;;;;;2081566;28;20188;-63
2021/11/07 02:13:50;;;;;;;24.13;13.20;;;-1.50;99.90;;;;;;2081408;28;20187;-63
2021/11/07 02:14:50;;;;;;;27.08;13.73;;;-1.40;99.90;;;;;;2080983;28;20184;-63
2021/11/07 02:15:54;;;;;;;27.10;13.63;;;-1.40;99.90;;;;;;2081402;28;20178;-63
2021/11/07 02:16:54;;;;;;;33.53;14.55;;;-1.40;99.90;;;;;;2081553;28;20189;-63
2021/11/07 02:17:55;;;;;;;28.10;13.30;;;-1.40;99.90;;;;;;2081250;28;20247;-63
2021/11/07 02:18:56;;;;;;;23.57;13.87;;;-1.40;99.90;;;;;;2081380;28;20665;-64
2021/11/07 02:20:00;;;;;;;31.23;15.77;;;-1.40;99.90;;;;;;2081373;28;20182;-62
2021/11/07 02:21:04;;;;;;;32.55;15.35;;;-1.50;99.90;;;;;;2081290;28;20187;-64
2021/11/07 02:22:06;;;;;;;28.50;14.80;;;-1.50;99.90;;;;;;2081364;28;20187;-63
2021/11/07 02:23:21;;;;;;;33.70;14.50;;;-1.50;99.90;;;;;;2081385;28;20626;-63
2021/11/07 02:24:22;;;;;;;29.25;14.15;;;-1.50;99.90;;;;;;2081558;28;20179;-64
2021/11/07 02:25:24;;;;;;;28.23;13.63;;;-1.50;99.90;;;;;;2081379;28;20180;-63
2021/11/07 02:26:25;;;;;;;27.30;13.80;;;-1.50;99.90;;;;;;2081275;28;20658;-63
2021/11/07 02:27:26;;;;;;;28.57;14.27;;;-1.50;99.90;;;;;;2081429;28;20184;-63
2021/11/07 02:28:33;;;;;;;24.65;12.57;;;-1.50;99.90;;;;;;2081440;28;20194;-63
2021/11/07 02:29:37;;;;;;;24.65;14.30;;;-1.50;99.90;;;;;;2081640;28;20219;-63
2021/11/07 02:30:39;;;;;;;27.33;14.35;;;-1.50;99.90;;;;;;2081531;28;20261;-63
2021/11/07 02:31:40;;;;;;;31.77;14.20;;;-1.50;99.90;;;;;;2081178;28;20184;-63
2021/11/07 02:32:43;;;;;;;27.70;13.27;;;-1.50;99.90;;;;;;2081302;28;20180;-63
2021/11/07 02:33:45;;;;;;;27.58;14.43;;;-1.50;99.90;;;;;;2081290;28;20188;-64
2021/11/07 02:34:46;;;;;;;26.50;13.27;;;-1.50;99.90;;;;;;2081321;28;20208;-64
2021/11/07 02:35:47;;;;;;;24.97;13.23;;;-1.50;99.90;;;;;;2081338;28;20640;-63
2021/11/07 02:36:48;;;;;;;29.53;14.93;;;-1.50;99.90;;;;;;2081350;28;20262;-64
2021/11/07 02:37:49;;;;;;;30.63;14.10;;;-1.50;99.90;;;;;;2081323;28;20249;-64
2021/11/07 02:38:50;;;;;;;27.97;13.37;;;-1.50;99.90;;;;;;2081336;28;20188;-64
2021/11/07 02:39:51;;;;;;;30.43;14.77;;;-1.60;99.90;;;;;;2081414;28;20207;-64
2021/11/07 02:40:52;;;;;;;32.95;15.27;;;-1.60;99.90;;;;;;2081219;28;20238;-64
2021/11/07 02:41:53;;;;;;;27.58;14.10;;;-1.60;99.90;;;;;;2080886;28;20206;-63
2021/11/07 02:42:54;;;;;;;26.20;13.63;;;-1.60;99.90;;;;;;2081229;28;20234;-63
2021/11/07 02:43:56;;;;;;;26.45;14.70;;;-1.60;99.90;;;;;;2081345;28;20428;-63
2021/11/07 02:44:57;;;;;;;24.08;13.10;;;-1.60;99.90;;;;;;2081244;28;20699;-64
2021/11/07 02:45:58;;;;;;;25.37;12.90;;;-1.60;99.90;;;;;;2081433;28;20190;-63
2021/11/07 02:47:00;;;;;;;24.80;13.80;;;-1.60;99.90;;;;;;2081262;28;20194;-63
2021/11/07 02:48:02;;;;;;;22.95;12.25;;;-1.50;99.90;;;;;;2081097;28;20262;-63
2021/11/07 02:49:04;;;;;;;22.05;12.18;;;-1.50;99.90;;;;;;2081219;28;20663;-64
2021/11/07 02:50:07;;;;;;;23.90;13.35;;;-1.50;99.90;;;;;;2081145;28;20196;-63
2021/11/07 02:51:08;;;;;;;25.45;12.90;;;-1.50;99.90;;;;;;2080866;28;20701;-63
2021/11/07 02:52:13;;;;;;;24.40;13.07;;;-1.50;99.90;;;;;;2081241;28;20279;-63
2021/11/07 02:53:14;;;;;;;24.70;12.95;;;-1.50;99.90;;;;;;2081028;28;20191;-63
2021/11/07 02:54:15;;;;;;;23.33;12.40;;;-1.50;99.90;;;;;;2081337;28;20195;-63
2021/11/07 02:55:17;;;;;;;22.83;12.63;;;-1.50;99.90;;;;;;2081302;28;20211;-63
2021/11/07 02:56:20;;;;;;;26.52;14.15;;;-1.50;99.90;;;;;;2081262;28;20537;-63
2021/11/07 02:57:22;;;;;;;22.83;12.27;;;-1.50;99.90;;;;;;2081119;28;20646;-63
2021/11/07 02:58:23;;;;;;;22.40;12.63;;;-1.50;99.90;;;;;;2081157;28;20223;-63
2021/11/07 02:59:30;;;;;;;25.13;13.17;;;-1.60;99.90;;;;;;2081170;28;20183;-64
2021/11/07 03:00:33;;;;;;;29.58;13.65;;;-1.60;99.90;;;;;;2081289;28;20733;-63
2021/11/07 03:01:35;;;;;;;25.52;12.65;;;-1.60;99.90;;;;;;2080953;28;20187;-64
2021/11/07 03:02:36;;;;;;;28.50;14.23;;;-1.60;99.90;;;;;;2081253;28;20187;-64
2021/11/07 03:03:37;;;;;;;28.27;14.52;;;-1.60;99.90;;;;;;2081059;28;20211;-63
2021/11/07 03:04:39;;;;;;;28.20;14.07;;;-1.60;99.90;;;;;;2081200;28;20226;-64
2021/11/07 03:05:40;;;;;;;28.27;14.75;;;-1.70;99.90;;;;;;2080547;28;20188;-63
2021/11/07 03:06:43;;;;;;;27.13;14.10;;;-1.70;99.90;;;;;;2080728;28;20587;-63
2021/11/07 03:07:44;;;;;;;26.98;14.25;;;-1.70;99.90;;;;;;2080963;28;20281;-63
2021/11/07 03:08:49;;;;;;;24.92;12.82;;;-1.70;99.90;;;;;;2081110;28;20188;-63
2021/11/07 03:09:51;;;;;;;28.05;13.95;;;-1.70;99.90;;;;;;2081217;28;20207;-64
2021/11/07 03:10:51;;;;;;;23.65;13.32;;;-1.70;99.90;;;;;;2081271;28;20199;-64
2021/11/07 03:11:54;;;;;;;22.73;12.57;;;-1.70;99.90;;;;;;2081043;28;20561;-63
2021/11/07 03:13:07;;;;;;;23.65;13.02;;;-1.70;99.90;;;;;;2081226;28;20204;-63
2021/11/07 03:14:13;;;;;;;22.05;11.75;;;-1.70;99.90;;;;;;2081091;28;20191;-64
2021/11/07 03:15:14;;;;;;;23.67;12.43;;;-1.70;99.90;;;;;;2081111;28;20175;-64
2021/11/07 03:16:15;;;;;;;24.80;13.13;;;-1.70;99.90;;;;;;2081059;28;20199;-63
2021/11/07 03:17:20;;;;;;;24.73;12.50;;;-1.70;99.90;;;;;;2081064;28;20184;-63
2021/11/07 03:18:20;;;;;;;25.45;13.18;;;-1.70;99.90;;;;;;2080981;28;20290;-63
2021/11/07 03:19:25;;;;;;;26.60;13.70;;;-1.70;99.90;;;;;;2081212;28;20536;-64
2021/11/07 03:20:26;;;;;;;23.25;13.00;;;-1.70;99.90;;;;;;2081083;28;20650;-63
2021/11/07 03:21:27;;;;;;;20.67;12.33;;;-1.70;99.90;;;;;;2081041;28;20188;-63
2021/11/07 03:22:29;;;;;;;22.50;12.03;;;-1.70;99.90;;;;;;2081058;28;20230;-63
2021/11/07 03:23:30;;;;;;;21.65;11.95;;;-1.70;99.90;;;;;;2081078;28;20625;-63
2021/11/07 03:24:31;;;;;;;21.00;11.48;;;-1.70;99.90;;;;;;2080456;28;20188;-63
2021/11/07 03:25:32;;;;;;;26.03;12.70;;;-1.80;99.90;;;;;;2080558;28;20184;-63
2021/11/07 03:26:36;;;;;;;24.17;12.07;;;-1.80;99.90;;;;;;2081459;28;20259;-63
2021/11/07 03:27:40;;;;;;;23.17;11.82;;;-1.80;99.90;;;;;;2082699;28;20192;-64
2021/11/07 03:28:42;;;;;;;21.08;11.57;;;-1.80;99.90;;;;;;2082672;28;20242;-63
2021/11/07 03:29:53;;;;;;;20.27;11.15;;;-1.80;99.90;;;;;;2082755;28;20201;-63
2021/11/07 03:31:02;;;;;;;25.17;12.02;;;-1.80;99.90;;;;;;2082303;28;20183;-63
2021/11/07 03:32:10;;;;;;;20.42;11.30;;;-1.80;99.90;;;;;;2082495;28;20567;-63
2021/11/07 03:33:22;;;;;;;22.75;11.48;;;-1.80;99.90;;;;;;2082695;28;20201;-63
2021/11/07 03:34:31;;;;;;;22.63;11.13;;;-1.80;99.90;;;;;;2082708;28;20226;-63
2021/11/07 03:35:32;;;;;;;20.13;11.43;;;-1.80;99.90;;;;;;2082703;28;20439;-63
2021/11/07 03:36:45;;;;;;;22.98;12.15;;;-1.80;99.90;;;;;;2082633;28;20707;-63
2021/11/07 03:37:56;;;;;;;21.15;11.57;;;-1.80;99.90;;;;;;2082604;28;20219;-63
2021/11/07 03:38:57;;;;;;;22.88;11.48;;;-1.80;99.90;;;;;;2082670;28;20181;-64
2021/11/07 03:40:00;;;;;;;22.63;12.40;;;-1.80;99.90;;;;;;2082609;28;20742;-63
2021/11/07 03:41:03;;;;;;;23.02;11.68;;;-1.80;99.90;;;;;;2081943;28;20232;-64
2021/11/07 03:42:11;;;;;;;23.73;12.20;;;-1.80;99.90;;;;;;2082811;28;20215;-63
2021/11/07 03:43:12;;;;;;;23.23;11.35;;;-1.80;99.90;;;;;;2082665;28;20210;-63
2021/11/07 03:44:15;;;;;;;21.17;11.27;;;-1.80;99.90;;;;;;2082752;28;20183;-64
2021/11/07 03:45:16;;;;;;;24.08;11.85;;;-1.80;99.90;;;;;;2082572;28;20275;-63
2021/11/07 03:46:17;;;;;;;19.85;10.85;;;-1.80;99.90;;;;;;2082530;28;20262;-63
2021/11/07 03:47:18;;;;;;;21.43;11.50;;;-1.80;99.90;;;;;;2082532;28;20245;-64
2021/11/07 03:48:19;;;;;;;22.95;11.27;;;-1.80;99.90;;;;;;2082596;28;20190;-63
2021/11/07 03:49:20;;;;;;;21.73;11.10;;;-1.80;99.90;;;;;;2082718;28;20206;-64
2021/11/07 03:50:25;;;;;;;21.90;11.77;;;-1.80;99.90;;;;;;2081218;28;20179;-64
2021/11/07 03:51:28;;;;;;;19.13;11.45;;;-1.80;99.90;;;;;;2084141;28;20566;-64
2021/11/07 03:52:28;;;;;;;25.20;12.15;;;-1.80;99.90;;;;;;2082367;28;20584;-64
2021/11/07 03:53:29;;;;;;;22.00;11.10;;;-1.70;99.90;;;;;;2082511;28;20189;-64
2021/11/07 03:54:30;;;;;;;20.63;10.63;;;-1.70;99.90;;;;;;2082570;28;20663;-64
2021/11/07 03:55:31;;;;;;;18.25;11.00;;;-1.70;99.90;;;;;;2082605;28;20215;-64
2021/11/07 03:56:32;;;;;;;21.50;11.63;;;-1.70;99.90;;;;;;2082548;28;20569;-64
2021/11/07 03:57:33;;;;;;;20.95;11.27;;;-1.70;99.90;;;;;;2082339;28;20214;-64
2021/11/07 03:58:34;;;;;;;20.63;10.83;;;-1.70;99.90;;;;;;2082487;28;20180;-63
2021/11/07 03:59:35;;;;;;;21.10;11.30;;;-1.70;99.90;;;;;;2082451;28;20179;-64
2021/11/07 04:00:36;;;;;;;19.47;11.10;;;-1.60;99.90;;;;;;2082521;28;20819;-63
2021/11/07 04:01:37;;;;;;;19.40;11.63;;;-1.60;99.90;;;;;;2082144;28;20589;-63
2021/11/07 04:02:39;;;;;;;22.17;11.73;;;-1.60;99.90;;;;;;2082641;28;20187;-63
2021/11/07 04:03:39;;;;;;;21.52;11.55;;;-1.60;99.90;;;;;;2082397;28;20191;-64
2021/11/07 04:04:40;;;;;;;18.97;10.77;;;-1.60;99.90;;;;;;2082609;28;20191;-63
2021/11/07 04:05:41;;;;;;;20.90;11.53;;;-1.70;99.90;;;;;;2082602;28;20643;-64
2021/11/07 04:06:42;;;;;;;23.97;11.73;;;-1.70;99.90;;;;;;2082482;28;20184;-63
2021/11/07 04:07:43;;;;;;;22.27;11.88;;;-1.70;99.90;;;;;;2082144;28;20219;-63
2021/11/07 04:08:45;;;;;;;23.30;12.20;;;-1.70;99.90;;;;;;2082315;28;20190;-64
2021/11/07 04:09:46;;;;;;;22.48;11.18;;;-1.70;99.90;;;;;;2082373;28;20185;-63
2021/11/07 04:10:46;;;;;;;20.13;10.57;;;-1.70;99.90;;;;;;2082386;28;20191;-63
2021/11/07 04:11:47;;;;;;;18.20;10.07;;;-1.70;99.90;;;;;;2082219;28;20187;-63
2021/11/07 04:12:49;;;;;;;19.73;10.05;;;-1.70;99.90;;;;;;2081656;28;20705;-63
2021/11/07 04:13:50;;;;;;;17.42;10.23;;;-1.80;99.90;;;;;;2081871;28;20275;-63
2021/11/07 04:14:51;;;;;;;19.53;10.50;;;-1.70;99.90;;;;;;2082418;28;20639;-64
2021/11/07 04:15:51;;;;;;;19.70;10.20;;;-1.70;99.90;;;;;;2082271;28;20274;-64
2021/11/07 04:16:52;;;;;;;19.43;10.30;;;-1.80;99.90;;;;;;2082375;28;20189;-63
2021/11/07 04:17:53;;;;;;;19.50;9.63;;;-1.80;99.90;;;;;;2082162;28;20613;-63
2021/11/07 04:18:53;;;;;;;17.90;9.40;;;-1.80;99.90;;;;;;2082355;28;20229;-63
2021/11/07 04:19:54;;;;;;;18.73;9.83;;;-1.90;99.90;;;;;;2082355;28;20182;-63
2021/11/07 04:20:55;;;;;;;16.57;8.83;;;-1.90;99.90;;;;;;2082227;28;20189;-63
2021/11/07 04:22:01;;;;;;;17.97;10.20;;;-2.00;99.90;;;;;;2082018;28;20190;-63
2021/11/07 04:23:03;;;;;;;19.63;9.80;;;-2.00;99.90;;;;;;2082487;28;20407;-63
2021/11/07 04:24:04;;;;;;;16.02;9.73;;;-2.10;99.90;;;;;;2082266;28;20194;-64
2021/11/07 04:25:07;;;;;;;19.80;10.57;;;-2.10;99.90;;;;;;2082347;28;20192;-63
2021/11/07 04:26:08;;;;;;;16.13;9.60;;;-2.10;99.90;;;;;;2082259;28;20234;-63
2021/11/07 04:27:09;;;;;;;17.57;9.73;;;-2.00;99.90;;;;;;2082311;28;20259;-63
2021/11/07 04:28:09;;;;;;;20.53;10.30;;;-2.00;99.90;;;;;;2082261;28;20478;-64
2021/11/07 04:29:10;;;;;;;18.73;9.67;;;-2.00;99.90;;;;;;2082189;28;20227;-63
2021/11/07 04:30:12;;;;;;;18.33;9.83;;;-2.10;99.90;;;;;;2082418;28;20257;-63
2021/11/07 04:31:12;;;;;;;16.67;9.90;;;-2.00;99.90;;;;;;2082066;28;20426;-63
2021/11/07 04:32:14;;;;;;;17.67;10.40;;;-2.00;99.90;;;;;;2082239;28;20219;-64
2021/11/07 04:33:15;;;;;;;16.88;9.85;;;-2.00;99.90;;;;;;2082328;28;20190;-63
2021/11/07 04:34:16;;;;;;;17.85;9.73;;;-2.00;99.90;;;;;;2082082;28;20678;-64
2021/11/07 04:35:17;;;;;;;16.80;9.73;;;-2.00;99.90;;;;;;2082133;28;20190;-63
2021/11/07 04:36:18;;;;;;;20.63;10.23;;;-2.10;99.90;;;;;;2082273;28;20187;-64
2021/11/07 04:37:21;;;;;;;18.58;10.75;;;-2.00;99.90;;;;;;2081692;28;20534;-64
2021/11/07 04:38:21;;;;;;;19.42;10.68;;;-2.00;99.90;;;;;;2082150;28;20210;-64
2021/11/07 04:39:24;;;;;;;17.83;10.17;;;-2.00;99.90;;;;;;2082346;28;20214;-63
2021/11/07 04:40:26;;;;;;;18.65;10.32;;;-2.00;99.90;;;;;;2082076;28;20183;-63
2021/11/07 04:41:27;;;;;;;16.35;9.77;;;-2.00;99.90;;;;;;2081862;28;20179;-63
2021/11/07 04:42:28;;;;;;;18.52;10.40;;;-2.00;99.90;;;;;;2082227;28;20238;-64
2021/11/07 04:43:28;;;;;;;18.90;10.17;;;-2.00;99.90;;;;;;2082212;28;20318;-63
2021/11/07 04:44:30;;;;;;;19.43;10.50;;;-2.00;99.90;;;;;;2082101;28;20205;-63
2021/11/07 04:45:31;;;;;;;17.08;9.82;;;-2.00;99.90;;;;;;2082191;28;20182;-63
2021/11/07 04:46:34;;;;;;;21.10;10.77;;;-1.90;99.90;;;;;;2082129;28;20663;-64
2021/11/07 04:47:34;;;;;;;18.50;9.85;;;-2.00;99.90;;;;;;2082111;28;20274;-63
2021/11/07 04:48:35;;;;;;;16.03;9.87;;;-2.00;99.90;;;;;;2082224;28;20174;-63
2021/11/07 04:49:36;;;;;;;18.83;10.17;;;-2.00;99.90;;;;;;2082019;28;20184;-63
2021/11/07 04:50:37;;;;;;;16.43;10.40;;;-2.00;99.90;;;;;;2082203;28;20171;-63
2021/11/07 04:51:38;;;;;;;17.92;10.63;;;-2.00;99.90;;;;;;2081739;28;20188;-63
2021/11/07 04:52:39;;;;;;;19.70;10.40;;;-2.00;99.90;;;;;;2082100;28;20180;-63
2021/11/07 04:53:40;;;;;;;17.73;9.85;;;-2.00;99.90;;;;;;2082065;28;20272;-63
2021/11/07 04:54:41;;;;;;;17.65;9.45;;;-2.00;99.90;;;;;;2082164;28;20263;-64
2021/11/07 04:55:43;;;;;;;18.43;9.07;;;-2.10;99.90;;;;;;2081942;28;20179;-64
2021/11/07 04:56:44;;;;;;;18.20;9.60;;;-2.10;99.90;;;;;;2082188;28;20182;-64
2021/11/07 04:57:46;;;;;;;18.73;9.98;;;-2.00;99.90;;;;;;2081853;28;20225;-63
2021/11/07 04:58:47;;;;;;;15.30;9.13;;;-2.10;99.90;;;;;;2082144;28;20175;-63
2021/11/07 04:59:48;;;;;;;16.73;9.15;;;-2.10;99.90;;;;;;2081959;28;20234;-64
2021/11/07 05:00:48;;;;;;;17.23;9.27;;;-2.10;99.90;;;;;;2082010;28;20627;-63
2021/11/07 05:01:49;;;;;;;14.90;8.77;;;-2.10;99.90;;;;;;2081777;28;20173;-63
2021/11/07 05:02:51;;;;;;;16.13;9.00;;;-2.10;99.90;;;;;;2082099;28;20187;-64
2021/11/07 05:03:52;;;;;;;16.05;9.00;;;-2.10;99.90;;;;;;2082026;28;20179;-63
2021/11/07 05:04:55;;;;;;;19.90;10.50;;;-2.10;99.90;;;;;;2082103;28;20225;-64
2021/11/07 05:05:56;;;;;;;21.73;11.00;;;-2.10;99.90;;;;;;2081934;28;20184;-63
2021/11/07 05:06:58;;;;;;;20.13;10.52;;;-2.00;99.90;;;;;;2081998;28;20233;-63
2021/11/07 05:07:59;;;;;;;19.60;10.38;;;-2.00;99.90;;;;;;2081953;28;20213;-63
2021/11/07 05:09:00;;;;;;;16.98;9.80;;;-2.00;99.90;;;;;;2081968;28;20596;-64
2021/11/07 05:10:02;;;;;;;23.52;10.45;;;-2.00;99.90;;;;;;2082093;28;20202;-63
2021/11/07 05:11:03;;;;;;;19.05;10.02;;;-1.90;99.90;;;;;;2081905;28;20203;-64
2021/11/07 05:12:04;;;;;;;19.10;11.10;;;-2.00;99.90;;;;;;2081865;28;20188;-64
2021/11/07 05:13:05;;;;;;;15.02;9.13;;;-1.90;99.90;;;;;;2082031;28;20436;-63
2021/11/07 05:14:06;;;;;;;21.07;10.70;;;-1.90;99.90;;;;;;2081943;28;20189;-64
2021/11/07 05:15:07;;;;;;;20.00;10.83;;;-1.90;99.90;;;;;;2081816;28;20176;-64
2021/11/07 05:16:08;;;;;;;19.23;10.05;;;-1.80;99.90;;;;;;2081889;28;20178;-63
2021/11/07 05:17:08;;;;;;;16.27;10.40;;;-1.80;99.90;;;;;;2081898;28;20196;-63
2021/11/07 05:18:09;;;;;;;20.80;10.77;;;-1.80;99.90;;;;;;2081726;28;20357;-63
2021/11/07 05:19:11;;;;;;;17.42;9.77;;;-1.80;99.90;;;;;;2082000;28;20216;-64
2021/11/07 05:20:13;;;;;;;17.52;10.10;;;-1.80;99.90;;;;;;2081956;28;20183;-63
2021/11/07 05:21:14;;;;;;;14.73;9.63;;;-1.90;99.90;;;;;;2081624;28;20186;-64
2021/11/07 05:22:15;;;;;;;15.00;8.50;;;-1.90;99.90;;;;;;2081903;28;20211;-64
2021/11/07 05:23:16;;;;;;;18.37;9.50;;;-1.90;99.90;;;;;;2081831;28;20274;-64
2021/11/07 05:24:16;;;;;;;16.35;9.27;;;-1.90;99.90;;;;;;2081755;28;20186;-64
2021/11/07 05:25:17;;;;;;;14.73;8.73;;;-1.90;99.90;;;;;;2081947;28;20182;-63
2021/11/07 05:26:18;;;;;;;15.53;8.70;;;-1.90;99.90;;;;;;2081769;28;20721;-63
2021/11/07 05:27:19;;;;;;;18.38;8.90;;;-1.90;99.90;;;;;;2081883;28;20653;-63
2021/11/07 05:28:22;;;;;;;18.42;8.80;;;-2.00;99.90;;;;;;2081668;28;20715;-63
2021/11/07 05:29:23;;;;;;;16.27;8.75;;;-2.00;99.90;;;;;;2081919;28;20599;-64
2021/11/07 05:30:24;;;;;;;16.10;8.97;;;-2.00;99.90;;;;;;2081760;28;20211;-63
2021/11/07 05:31:24;;;;;;;15.77;8.87;;;-2.00;99.90;;;;;;2081852;28;20185;-63
2021/11/07 05:32:25;;;;;;;12.13;7.33;;;-2.00;99.90;;;;;;2081501;28;20273;-63
2021/11/07 05:33:26;;;;;;;17.30;9.45;;;-2.00;99.90;;;;;;2081745;28;20185;-63
2021/11/07 05:34:27;;;;;;;18.92;10.02;;;-2.00;99.90;;;;;;2081753;28;20270;-63
2021/11/07 05:35:28;;;;;;;22.02;10.10;;;-2.00;99.90;;;;;;2081480;28;20203;-63
2021/11/07 05:36:29;;;;;;;17.43;10.03;;;-2.10;99.90;;;;;;2081761;28;20210;-63
2021/11/07 05:37:30;;;;;;;18.80;9.68;;;-2.00;99.90;;;;;;2081505;28;20228;-63
2021/11/07 05:38:31;;;;;;;17.93;9.93;;;-2.00;99.90;;;;;;2081723;28;20176;-64
2021/11/07 05:39:32;;;;;;;18.35;9.93;;;-2.00;99.90;;;;;;2081705;28;20183;-63
2021/11/07 05:40:32;;;;;;;20.97;10.43;;;-2.00;99.90;;;;;;2081766;28;20583;-63
2021/11/07 05:41:34;;;;;;;17.00;9.50;;;-2.00;99.90;;;;;;2081437;28;20177;-63
2021/11/07 05:42:35;;;;;;;15.75;9.20;;;-1.90;99.90;;;;;;2081765;28;20172;-63
2021/11/07 05:43:36;;;;;;;20.23;9.85;;;-1.90;99.90;;;;;;2081616;28;20270;-63
2021/11/07 05:44:38;;;;;;;16.98;10.05;;;-1.90;99.90;;;;;;2081700;28;20183;-63
2021/11/07 05:45:38;;;;;;;19.77;10.57;;;-1.90;99.90;;;;;;2081694;28;20184;-63
2021/11/07 05:46:39;;;;;;;18.97;9.33;;;-1.90;99.90;;;;;;2081681;28;20726;-63
2021/11/07 05:47:42;;;;;;;19.50;9.85;;;-1.80;99.90;;;;;;2081475;28;20186;-63
2021/11/07 05:48:42;;;;;;;16.95;9.93;;;-1.80;99.90;;;;;;2081408;28;20658;-63
2021/11/07 05:49:43;;;;;;;20.40;10.57;;;-1.80;99.90;;;;;;2080826;28;20188;-64
2021/11/07 05:50:45;;;;;;;16.50;8.93;;;-1.80;99.90;;;;;;2081618;28;20198;-63